createdAt,value
2023-05-12T00:02:03.943Z,25.80
2023-05-12T00:04:30.817Z,25.90
2023-05-12T00:06:58.042Z,25.80
2023-05-12T00:09:24.793Z,23.40
2023-05-12T00:11:51.272Z,20.90
2023-05-12T00:14:18.038Z,22.00
2023-05-12T00:16:44.516Z,26.60
2023-05-12T00:19:11.106Z,26.60
2023-05-12T00:21:38.078Z,27.50
2023-05-12T00:24:05.398Z,24.60
2023-05-12T00:26:31.870Z,26.30
2023-05-12T00:28:58.384Z,25.00
2023-05-12T00:31:24.921Z,22.30
2023-05-12T00:33:51.596Z,22.80
2023-05-12T00:36:18.318Z,25.80
2023-05-12T00:38:44.972Z,25.90
2023-05-12T00:41:11.515Z,19.90
2023-05-12T00:43:38.113Z,22.40
2023-05-12T00:46:05.633Z,22.70
2023-05-12T00:48:33.003Z,21.30
2023-05-12T00:51:01.067Z,20.90
2023-05-12T00:53:41.096Z,23.60
2023-05-12T00:56:14.613Z,22.60
2023-05-12T00:58:41.074Z,22.60
2023-05-12T01:01:07.756Z,20.40
2023-05-12T01:03:34.696Z,19.90
2023-05-12T01:06:12.294Z,22.40
2023-05-12T01:08:39.592Z,25.40
2023-05-12T01:11:06.083Z,25.30
2023-05-12T01:13:32.640Z,22.60
2023-05-12T01:16:02.616Z,20.90
2023-05-12T01:18:31.297Z,25.50
2023-05-12T01:21:00.428Z,19.80
2023-05-12T01:23:33.804Z,24.10
2023-05-12T01:26:06.763Z,23.00
2023-05-12T01:28:35.689Z,28.80
2023-05-12T01:31:05.452Z,24.30
2023-05-12T01:33:33.464Z,22.60
2023-05-12T01:36:00.018Z,19.00
2023-05-12T01:38:27.166Z,20.30
2023-05-12T01:40:53.805Z,21.50
2023-05-12T01:43:22.073Z,23.30
2023-05-12T01:45:48.851Z,28.80
2023-05-12T01:48:15.586Z,22.00
2023-05-12T01:50:42.101Z,23.50
2023-05-12T01:53:08.734Z,24.50
2023-05-12T01:55:35.237Z,21.60
2023-05-12T01:58:01.690Z,23.30
2023-05-12T02:00:28.215Z,21.50
2023-05-12T02:02:54.800Z,22.00
2023-05-12T02:05:21.410Z,22.40
2023-05-12T02:07:48.666Z,20.90
2023-05-12T02:10:15.111Z,23.00
2023-05-12T02:12:42.007Z,22.60
2023-05-12T02:15:09.007Z,22.80
2023-05-12T02:17:35.593Z,24.00
2023-05-12T02:20:02.408Z,27.00
2023-05-12T02:22:28.874Z,28.00
2023-05-12T02:24:55.368Z,24.00
2023-05-12T02:27:21.938Z,25.60
2023-05-12T02:29:48.359Z,24.50
2023-05-12T02:32:14.880Z,22.50
2023-05-12T02:34:41.360Z,25.10
2023-05-12T02:37:08.158Z,24.60
2023-05-12T02:39:34.655Z,22.40
2023-05-12T02:42:01.159Z,22.40
2023-05-12T02:44:27.705Z,23.70
2023-05-12T02:46:54.165Z,23.40
2023-05-12T02:49:21.111Z,21.60
2023-05-12T02:51:47.557Z,24.10
2023-05-12T02:54:14.266Z,24.20
2023-05-12T02:56:41.018Z,25.60
2023-05-12T02:59:08.054Z,22.30
2023-05-12T03:01:34.538Z,22.60
2023-05-12T03:04:01.192Z,21.80
2023-05-12T03:06:28.141Z,22.20
2023-05-12T03:08:54.686Z,21.70
2023-05-12T03:11:22.307Z,23.30
2023-05-12T03:13:48.807Z,22.00
2023-05-12T03:16:15.262Z,20.80
2023-05-12T03:18:41.843Z,20.70
2023-05-12T03:21:08.477Z,24.70
2023-05-12T03:23:34.983Z,25.30
2023-05-12T03:26:01.550Z,23.10
2023-05-12T03:28:28.230Z,26.50
2023-05-12T03:30:55.175Z,28.30
2023-05-12T03:33:21.807Z,23.80
2023-05-12T03:35:48.366Z,25.90
2023-05-12T03:38:14.865Z,24.60
2023-05-12T03:40:41.485Z,26.00
2023-05-12T03:43:08.113Z,20.70
2023-05-12T03:45:34.584Z,27.10
2023-05-12T03:48:01.250Z,24.90
2023-05-12T03:50:27.931Z,21.20
2023-05-12T03:52:54.485Z,22.90
2023-05-12T03:55:21.242Z,22.10
2023-05-12T03:57:48.647Z,24.50
2023-05-12T04:00:15.737Z,20.70
2023-05-12T04:02:42.530Z,26.40
2023-05-12T04:05:09.851Z,20.80
2023-05-12T04:07:36.762Z,25.50
2023-05-12T04:10:03.983Z,22.80
2023-05-12T04:12:30.531Z,21.20
2023-05-12T04:14:58.046Z,23.90
2023-05-12T04:17:25.172Z,26.00
2023-05-12T04:19:52.217Z,22.20
2023-05-12T04:22:18.768Z,20.60
2023-05-12T04:24:45.305Z,19.10
2023-05-12T04:27:11.823Z,15.30
2023-05-12T04:29:38.336Z,17.70
2023-05-12T04:32:05.792Z,16.60
2023-05-12T04:34:32.330Z,16.50
2023-05-12T04:36:58.810Z,14.60
2023-05-12T04:39:25.620Z,12.50
2023-05-12T04:41:52.271Z,13.60
2023-05-12T04:44:19.020Z,14.30
2023-05-12T04:46:45.550Z,14.20
2023-05-12T04:49:12.488Z,14.70
2023-05-12T04:51:39.157Z,14.90
2023-05-12T04:54:06.009Z,11.20
2023-05-12T04:56:32.444Z,13.60
2023-05-12T04:58:59.019Z,12.10
2023-05-12T05:01:25.568Z,13.70
2023-05-12T05:03:52.492Z,13.50
2023-05-12T05:06:19.247Z,18.10
2023-05-12T05:08:46.019Z,13.40
2023-05-12T05:11:12.538Z,13.70
2023-05-12T05:13:39.213Z,12.50
2023-05-12T05:16:06.713Z,18.50
2023-05-12T05:18:33.260Z,14.80
2023-05-12T05:21:00.574Z,15.50
2023-05-12T05:23:27.153Z,13.10
2023-05-12T05:25:54.068Z,15.90
2023-05-12T05:28:21.028Z,15.80
2023-05-12T05:30:47.573Z,16.30
2023-05-12T05:33:14.282Z,14.20
2023-05-12T05:35:41.354Z,18.60
2023-05-12T05:38:07.814Z,18.60
2023-05-12T05:40:48.811Z,17.60
2023-05-12T05:43:19.217Z,19.20
2023-05-12T05:45:45.831Z,18.40
2023-05-12T05:48:12.318Z,19.00
2023-05-12T05:50:39.163Z,19.00
2023-05-12T05:53:05.594Z,18.30
2023-05-12T05:55:32.273Z,13.00
2023-05-12T05:57:58.837Z,15.40
2023-05-12T06:00:25.281Z,13.40
2023-05-12T06:02:51.788Z,14.10
2023-05-12T06:05:18.647Z,19.60
2023-05-12T06:07:45.392Z,15.30
2023-05-12T06:10:12.154Z,12.50
2023-05-12T06:12:38.601Z,15.80
2023-05-12T06:15:05.800Z,19.80
2023-05-12T06:17:32.777Z,19.10
2023-05-12T06:19:59.444Z,15.80
2023-05-12T06:22:26.076Z,52.40
2023-05-12T06:24:52.517Z,20.60
2023-05-12T06:27:19.090Z,22.00
2023-05-12T06:29:45.482Z,24.20
2023-05-12T06:32:11.983Z,25.50
2023-05-12T06:34:38.811Z,18.50
2023-05-12T06:37:05.379Z,21.50
2023-05-12T06:39:31.950Z,14.10
2023-05-12T06:41:58.572Z,13.20
2023-05-12T06:44:25.009Z,19.00
2023-05-12T06:46:51.492Z,16.00
2023-05-12T06:49:17.935Z,15.40
2023-05-12T06:51:44.616Z,18.40
2023-05-12T06:54:11.352Z,18.00
2023-05-12T06:56:37.931Z,16.00
2023-05-12T06:59:04.377Z,16.50
2023-05-12T07:01:32.114Z,18.80
2023-05-12T07:03:59.471Z,15.90
2023-05-12T07:06:26.325Z,15.70
2023-05-12T07:08:52.768Z,12.90
2023-05-12T07:11:19.570Z,11.40
2023-05-12T07:13:47.112Z,13.10
2023-05-12T07:16:14.537Z,14.90
2023-05-12T07:18:41.345Z,14.40
2023-05-12T07:21:08.391Z,11.10
2023-05-12T07:23:35.421Z,11.50
2023-05-12T07:26:03.599Z,10.90
2023-05-12T07:28:31.263Z,10.80
2023-05-12T07:30:58.989Z,10.90
2023-05-12T07:33:25.507Z,12.20
2023-05-12T07:35:52.066Z,11.10
2023-05-12T07:38:18.510Z,8.90
2023-05-12T07:40:45.022Z,8.00
2023-05-12T07:43:12.497Z,9.80
2023-05-12T07:45:38.897Z,8.70
2023-05-12T07:48:05.577Z,8.50
2023-05-12T07:50:32.104Z,7.10
2023-05-12T07:52:58.499Z,7.00
2023-05-12T07:55:24.984Z,6.90
2023-05-12T07:57:51.694Z,5.00
2023-05-12T08:00:18.841Z,9.20
2023-05-12T08:02:45.773Z,5.90
2023-05-12T08:05:12.770Z,3.90
2023-05-12T08:07:41.219Z,5.50
2023-05-12T08:10:08.036Z,5.30
2023-05-12T08:12:34.474Z,4.60
2023-05-12T08:15:00.923Z,4.70
2023-05-12T08:17:29.274Z,6.10
2023-05-12T08:19:56.316Z,6.30
2023-05-12T08:22:22.721Z,2.90
2023-05-12T08:24:49.247Z,4.20
2023-05-12T08:27:15.720Z,21.30
2023-05-12T08:29:42.155Z,5.10
2023-05-12T08:32:08.818Z,5.00
2023-05-12T08:34:35.459Z,2.90
2023-05-12T08:37:01.995Z,4.40
2023-05-12T08:39:28.732Z,2.50
2023-05-12T08:42:18.570Z,3.30
2023-05-12T08:44:46.582Z,4.70
2023-05-12T08:47:15.364Z,3.70
2023-05-12T08:49:44.047Z,4.80
2023-05-12T08:52:12.716Z,3.90
2023-05-12T08:54:52.164Z,2.00
2023-05-12T08:57:20.633Z,4.50
2023-05-12T08:59:47.859Z,5.80
2023-05-12T09:02:17.303Z,3.10
2023-05-12T09:04:44.355Z,5.60
2023-05-12T09:07:11.418Z,5.00
2023-05-12T09:09:39.593Z,5.70
2023-05-12T09:12:11.840Z,5.50
2023-05-12T09:14:40.449Z,2.90
2023-05-12T09:17:06.975Z,2.80
2023-05-12T09:19:33.557Z,4.70
2023-05-12T09:22:00.605Z,4.50
2023-05-12T09:24:38.142Z,6.70
2023-05-12T09:27:05.682Z,9.00
2023-05-12T09:32:02.455Z,4.10
2023-05-12T09:34:33.915Z,5.10
2023-05-12T09:37:02.599Z,3.30
2023-05-12T09:39:29.121Z,4.60
2023-05-12T09:41:56.105Z,3.60
2023-05-12T09:44:24.412Z,4.50
2023-05-12T09:46:51.472Z,2.60
2023-05-12T09:49:19.971Z,3.30
2023-05-12T09:51:46.908Z,7.20
2023-05-12T09:54:13.373Z,4.10
2023-05-12T09:56:41.200Z,3.10
2023-05-12T09:59:12.996Z,6.30
2023-05-12T10:01:39.783Z,6.10
2023-05-12T10:04:08.472Z,4.90
2023-05-12T10:06:40.507Z,3.00
2023-05-12T10:09:31.092Z,3.60
2023-05-12T10:11:58.350Z,3.80
2023-05-12T10:14:25.734Z,3.20
2023-05-12T10:16:53.496Z,6.60
2023-05-12T10:19:21.101Z,4.30
2023-05-12T10:21:48.764Z,4.40
2023-05-12T10:24:16.113Z,3.30
2023-05-12T10:26:43.975Z,2.90
2023-05-12T10:29:12.085Z,2.90
2023-05-12T10:31:39.497Z,3.70
2023-05-12T10:34:06.173Z,3.30
2023-05-12T10:36:45.888Z,3.00
2023-05-12T10:39:13.686Z,6.40
2023-05-12T10:41:40.226Z,8.80
2023-05-12T10:44:06.741Z,2.20
2023-05-12T10:46:33.256Z,3.80
2023-05-12T10:49:01.005Z,4.70
2023-05-12T10:51:29.997Z,4.40
2023-05-12T10:54:07.955Z,3.60
2023-05-12T10:56:37.691Z,4.60
2023-05-12T10:59:18.010Z,3.40
2023-05-12T11:01:59.239Z,2.50
2023-05-12T11:04:41.224Z,4.60
2023-05-12T11:07:12.210Z,3.90
2023-05-12T11:09:56.672Z,2.90
2023-05-12T11:12:28.712Z,2.40
2023-05-12T11:17:21.798Z,2.50
2023-05-12T11:19:50.384Z,3.10
2023-05-12T11:22:19.237Z,4.50
2023-05-12T11:24:46.164Z,3.10
2023-05-12T11:27:14.930Z,3.10
2023-05-12T11:29:42.525Z,4.00
2023-05-12T11:32:10.445Z,2.60
2023-05-12T11:34:37.227Z,4.20
2023-05-12T11:37:04.911Z,4.00
2023-05-12T11:39:31.451Z,4.80
2023-05-12T11:42:12.298Z,4.80
2023-05-12T11:44:47.959Z,6.40
2023-05-12T11:47:15.781Z,5.00
2023-05-12T11:49:47.390Z,6.40
2023-05-12T11:52:13.995Z,5.40
2023-05-12T11:54:56.878Z,4.20
2023-05-12T11:57:32.496Z,6.20
2023-05-12T12:00:02.303Z,5.50
2023-05-12T12:02:28.990Z,7.00
2023-05-12T12:04:56.288Z,3.30
2023-05-12T12:07:34.123Z,5.00
2023-05-12T12:10:15.307Z,5.10
2023-05-12T12:12:42.908Z,6.90
2023-05-12T12:15:10.739Z,4.90
2023-05-12T12:17:38.169Z,3.40
2023-05-12T12:20:05.751Z,5.00
2023-05-12T12:22:32.249Z,5.50
2023-05-12T12:24:58.780Z,6.40
2023-05-12T12:27:25.206Z,5.90
2023-05-12T12:29:51.928Z,3.70
2023-05-12T12:32:18.465Z,3.00
2023-05-12T12:34:45.048Z,4.50
2023-05-12T12:37:11.774Z,5.40
2023-05-12T12:39:38.422Z,5.50
2023-05-12T12:42:05.158Z,4.30
2023-05-12T12:44:31.726Z,7.30
2023-05-12T12:46:58.271Z,7.30
2023-05-12T12:49:24.728Z,4.90
2023-05-12T12:51:51.412Z,5.10
2023-05-12T12:54:18.012Z,7.80
2023-05-12T12:56:44.468Z,4.30
2023-05-12T12:59:11.031Z,6.80
2023-05-12T13:01:37.948Z,7.10
2023-05-12T13:04:04.519Z,3.90
2023-05-12T13:06:31.081Z,7.80
2023-05-12T13:08:57.589Z,5.30
2023-05-12T13:11:24.038Z,4.10
2023-05-12T13:13:50.559Z,5.70
2023-05-12T13:16:17.174Z,6.10
2023-05-12T13:18:44.256Z,6.80
2023-05-12T13:21:10.734Z,4.70
2023-05-12T13:23:37.493Z,6.40
2023-05-12T13:26:03.995Z,7.80
2023-05-12T13:28:30.761Z,5.70
2023-05-12T13:30:57.399Z,3.80
2023-05-12T13:33:24.193Z,5.60
2023-05-12T13:35:50.751Z,4.30
2023-05-12T13:38:17.323Z,5.10
2023-05-12T13:40:43.924Z,3.60
2023-05-12T13:43:10.383Z,3.30
2023-05-12T13:45:36.893Z,5.10
2023-05-12T13:48:03.564Z,6.20
2023-05-12T13:50:31.386Z,5.40
2023-05-12T13:52:59.898Z,5.70
2023-05-12T13:55:26.635Z,4.90
2023-05-12T13:57:53.350Z,6.50
2023-05-12T14:00:20.152Z,7.40
2023-05-12T14:02:46.857Z,6.90
2023-05-12T14:05:13.707Z,7.30
2023-05-12T14:07:40.239Z,7.60
2023-05-12T14:10:07.444Z,7.20
2023-05-12T14:12:33.993Z,3.50
2023-05-12T14:15:12.295Z,4.20
2023-05-12T14:17:46.992Z,4.30
2023-05-12T14:20:13.677Z,10.20
2023-05-12T14:22:40.083Z,3.70
2023-05-12T14:25:07.081Z,6.10
2023-05-12T14:27:33.545Z,6.80
2023-05-12T14:30:00.188Z,5.10
2023-05-12T14:32:26.891Z,6.20
2023-05-12T14:34:53.398Z,6.10
2023-05-12T14:37:19.914Z,6.90
2023-05-12T14:39:46.443Z,4.00
2023-05-12T14:42:13.003Z,3.00
2023-05-12T14:44:39.616Z,4.10
2023-05-12T14:47:08.765Z,9.00
2023-05-12T14:49:35.588Z,10.80
2023-05-12T14:52:02.869Z,4.50
2023-05-12T14:54:29.510Z,8.30
2023-05-12T14:56:56.197Z,7.20
2023-05-12T14:59:22.686Z,7.50
2023-05-12T15:01:49.437Z,7.30
2023-05-12T15:04:16.414Z,10.90
2023-05-12T15:06:42.933Z,4.10
2023-05-12T15:09:09.367Z,7.00
2023-05-12T15:11:35.881Z,4.80
2023-05-12T15:14:02.346Z,7.90
2023-05-12T15:16:29.057Z,8.10
2023-05-12T15:18:55.620Z,4.70
2023-05-12T15:21:22.220Z,5.00
2023-05-12T15:23:48.724Z,6.30
2023-05-12T15:28:47.621Z,7.70
2023-05-12T15:31:14.089Z,7.20
2023-05-12T15:33:40.805Z,6.20
2023-05-12T15:36:07.368Z,7.50
2023-05-12T15:38:33.765Z,7.80
2023-05-12T15:41:00.252Z,6.80
2023-05-12T15:43:26.900Z,5.00
2023-05-12T15:45:53.434Z,5.50
2023-05-12T15:48:20.252Z,5.70
2023-05-12T15:50:46.917Z,9.40
2023-05-12T15:53:13.458Z,12.20
2023-05-12T15:55:40.164Z,6.60
2023-05-12T15:58:06.731Z,9.40
2023-05-12T16:00:33.252Z,12.50
2023-05-12T16:02:59.977Z,9.60
2023-05-12T16:05:26.550Z,11.20
2023-05-12T16:07:53.187Z,7.50
2023-05-12T16:10:19.766Z,11.60
2023-05-12T16:12:46.199Z,9.10
2023-05-12T16:15:13.064Z,7.20
2023-05-12T16:17:39.666Z,6.30
2023-05-12T16:20:07.172Z,8.20
2023-05-12T16:22:34.294Z,9.10
2023-05-12T16:25:00.761Z,9.60
2023-05-12T16:27:27.190Z,10.90
2023-05-12T16:29:53.745Z,12.20
2023-05-12T16:32:20.294Z,8.50
2023-05-12T16:34:46.869Z,6.20
2023-05-12T16:37:13.281Z,4.30
2023-05-12T16:39:39.738Z,8.40
2023-05-12T16:42:07.001Z,10.70
2023-05-12T16:44:33.503Z,6.60
2023-05-12T16:46:59.974Z,5.60
2023-05-12T16:49:26.455Z,7.80
2023-05-12T16:51:52.958Z,9.40
2023-05-12T16:54:19.470Z,6.80
2023-05-12T16:56:45.927Z,6.10
2023-05-12T16:59:12.473Z,5.10
2023-05-12T17:01:39.068Z,5.80
2023-05-12T17:04:06.279Z,6.10
2023-05-12T17:06:32.836Z,5.20
2023-05-12T17:08:59.339Z,8.60
2023-05-12T17:11:25.799Z,8.20
2023-05-12T17:13:52.230Z,7.30
2023-05-12T17:16:18.696Z,6.60
2023-05-12T17:21:14.974Z,7.50
2023-05-12T17:23:41.466Z,6.00
2023-05-12T17:26:07.944Z,8.50
2023-05-12T17:28:34.508Z,10.00
2023-05-12T17:31:01.064Z,6.00
2023-05-12T17:33:27.797Z,7.90
2023-05-12T17:38:26.180Z,10.50
2023-05-12T17:40:52.771Z,6.40
2023-05-12T17:43:19.337Z,7.40
2023-05-12T17:45:46.093Z,6.80
2023-05-12T17:48:12.593Z,6.00
2023-05-12T17:50:39.473Z,9.50
2023-05-12T17:53:06.869Z,13.90
2023-05-12T17:55:33.729Z,10.70
2023-05-12T17:58:00.282Z,12.00
2023-05-12T18:00:27.208Z,17.00
2023-05-12T18:02:54.055Z,21.50
2023-05-12T18:05:20.668Z,19.70
2023-05-12T18:07:47.386Z,18.10
2023-05-12T18:10:13.928Z,16.60
2023-05-12T18:12:40.371Z,11.00
2023-05-12T18:15:07.887Z,11.00
2023-05-12T18:17:34.958Z,10.90
2023-05-12T18:20:01.672Z,8.20
2023-05-12T18:22:28.117Z,9.80
2023-05-12T18:24:54.970Z,12.00
2023-05-12T18:27:21.475Z,9.10
2023-05-12T18:29:48.388Z,8.70
2023-05-12T18:32:15.137Z,10.60
2023-05-12T18:34:55.556Z,7.10
2023-05-12T18:37:22.376Z,7.00
2023-05-12T18:39:49.127Z,12.10
2023-05-12T18:42:15.542Z,10.20
2023-05-12T18:44:42.000Z,9.50
2023-05-12T18:47:09.096Z,8.80
2023-05-12T18:49:36.612Z,9.20
2023-05-12T18:52:03.722Z,8.30
2023-05-12T18:54:30.330Z,7.20
2023-05-12T18:56:56.777Z,9.30
2023-05-12T18:59:23.248Z,10.90
2023-05-12T19:01:49.784Z,13.00
2023-05-12T19:04:16.440Z,14.80
2023-05-12T19:06:42.902Z,15.40
2023-05-12T19:09:09.511Z,11.90
2023-05-12T19:11:35.956Z,11.40
2023-05-12T19:14:02.533Z,12.20
2023-05-12T19:16:28.979Z,12.90
2023-05-12T19:18:55.742Z,14.50
2023-05-12T19:21:22.289Z,11.90
2023-05-12T19:23:49.049Z,14.20
2023-05-12T19:26:15.587Z,10.20
2023-05-12T19:28:42.065Z,12.40
2023-05-12T19:31:08.564Z,14.10
2023-05-12T19:33:35.310Z,10.60
2023-05-12T19:36:02.039Z,14.50
2023-05-12T19:38:28.675Z,13.80
2023-05-12T19:40:55.204Z,12.60
2023-05-12T19:43:21.991Z,15.80
2023-05-12T19:45:48.749Z,10.40
2023-05-12T19:48:15.344Z,11.80
2023-05-12T19:50:41.848Z,11.30
2023-05-12T19:53:08.265Z,11.00
2023-05-12T19:55:34.703Z,16.70
2023-05-12T19:58:01.137Z,18.70
2023-05-12T20:00:27.658Z,17.50
2023-05-12T20:02:54.306Z,15.10
2023-05-12T20:05:21.148Z,20.20
2023-05-12T20:07:48.044Z,18.20
2023-05-12T20:10:14.541Z,19.40
2023-05-12T20:12:41.111Z,22.60
2023-05-12T20:15:08.468Z,22.80
2023-05-12T20:17:35.029Z,21.60
2023-05-12T20:20:01.667Z,17.00
2023-05-12T20:22:28.113Z,19.00
2023-05-12T20:24:54.598Z,25.80
2023-05-12T20:27:21.078Z,17.50
2023-05-12T20:29:47.468Z,19.50
2023-05-12T20:32:14.469Z,21.20
2023-05-12T20:34:41.149Z,20.80
2023-05-12T20:37:07.814Z,19.10
2023-05-12T20:39:34.280Z,27.10
2023-05-12T20:42:00.801Z,27.80
2023-05-12T20:44:27.261Z,30.30
2023-05-12T20:46:53.931Z,33.30
2023-05-12T20:49:20.483Z,38.90
2023-05-12T20:51:46.989Z,34.50
2023-05-12T20:54:13.514Z,35.70
2023-05-12T20:56:40.140Z,37.50
2023-05-12T20:59:06.576Z,33.10
2023-05-12T21:01:33.060Z,33.80
2023-05-12T21:03:59.582Z,30.40
2023-05-12T21:06:26.449Z,32.60
2023-05-12T21:08:53.088Z,30.20
2023-05-12T21:11:19.733Z,33.20
2023-05-12T21:13:47.093Z,31.30
2023-05-12T21:16:14.632Z,26.30
2023-05-12T21:18:41.404Z,27.20
2023-05-12T21:21:08.004Z,25.90
2023-05-12T21:23:35.392Z,27.00
2023-05-12T21:26:02.063Z,21.30
2023-05-12T21:28:28.528Z,20.50
2023-05-12T21:30:55.179Z,20.10
2023-05-12T21:33:21.822Z,23.40
2023-05-12T21:35:48.535Z,21.60
2023-05-12T21:38:15.762Z,21.10
2023-05-12T21:40:42.304Z,21.10
2023-05-12T21:43:08.772Z,20.50
2023-05-12T21:45:35.294Z,22.00
2023-05-12T21:48:01.949Z,19.40
2023-05-12T21:50:28.597Z,18.60
2023-05-12T21:52:55.137Z,19.00
2023-05-12T21:55:21.989Z,19.70
2023-05-12T21:57:48.382Z,20.70
2023-05-12T22:00:15.381Z,20.60
2023-05-12T22:02:41.914Z,21.40
2023-05-12T22:05:08.637Z,19.40
2023-05-12T22:07:35.325Z,19.40
2023-05-12T22:10:02.254Z,20.80
2023-05-12T22:12:28.739Z,23.10
2023-05-12T22:14:55.234Z,22.90
2023-05-12T22:17:21.757Z,24.80
2023-05-12T22:19:48.414Z,27.20
2023-05-12T22:22:14.921Z,26.20
2023-05-12T22:24:41.464Z,25.20
2023-05-12T22:27:08.050Z,27.50
2023-05-12T22:29:34.478Z,32.50
2023-05-12T22:32:00.963Z,32.50
2023-05-12T22:34:27.449Z,34.50
2023-05-12T22:36:53.983Z,28.00
2023-05-12T22:39:20.546Z,27.20
2023-05-12T22:41:47.114Z,30.00
2023-05-12T22:44:13.732Z,33.30
2023-05-12T22:46:40.397Z,35.00
2023-05-12T22:49:06.918Z,33.40
2023-05-12T22:51:33.566Z,30.60
2023-05-12T22:54:00.018Z,28.90
2023-05-12T22:56:26.554Z,28.30
2023-05-12T22:58:53.104Z,25.00
2023-05-12T23:01:19.697Z,25.90
2023-05-12T23:03:46.432Z,29.50
2023-05-12T23:06:12.873Z,29.50
2023-05-12T23:08:39.374Z,27.20
2023-05-12T23:11:05.917Z,25.60
2023-05-12T23:13:32.383Z,23.20
2023-05-12T23:15:59.011Z,24.50
2023-05-12T23:18:25.591Z,23.10
2023-05-12T23:20:52.253Z,22.80
2023-05-12T23:23:18.828Z,25.10
2023-05-12T23:25:46.926Z,24.50
2023-05-12T23:28:13.563Z,18.90
2023-05-12T23:30:40.036Z,21.30
2023-05-12T23:33:07.005Z,22.70
2023-05-12T23:35:33.530Z,21.80
2023-05-12T23:38:00.127Z,19.60
2023-05-12T23:40:26.579Z,21.30
2023-05-12T23:42:53.199Z,18.10
2023-05-12T23:45:20.210Z,20.20
2023-05-12T23:47:46.693Z,22.50
2023-05-12T23:50:13.315Z,18.50
2023-05-12T23:52:39.866Z,20.90
2023-05-12T23:55:07.442Z,19.80
2023-05-12T23:57:33.877Z,18.70
